Time;durP1;ratioP1;P1;durP2;ratioP2;P2;SDS_P1;SDS_P2;PMS_P1;PMS_P2;Temp;Humidity;BMP_temperature;BMP_pressure;BME280_temperature;BME280_humidity;BME280_pressure;Samples;Min_cycle;Max_cycle;Signal;HPM_P1;HPM_P2
2023/03/14 00:00:34;;;;;;;10.50;7.00;;;13.90;99.90;;;;;;4589422;19;20050;-28
2023/03/14 00:02:25;;;;;;;11.17;6.73;;;14.00;99.90;;;;;;4588828;19;20014;-29
2023/03/14 00:03:56;;;;;;;11.77;7.63;;;13.90;99.90;;;;;;4589236;19;20362;-31
2023/03/14 00:05:29;;;;;;;10.47;6.43;;;13.90;99.90;;;;;;4588577;19;20010;-31
2023/03/14 00:07:00;;;;;;;11.75;6.35;;;13.90;99.90;;;;;;4589033;19;20074;-28
2023/03/14 00:08:31;;;;;;;9.02;5.60;;;13.90;99.90;;;;;;4589526;19;20460;-30
2023/03/14 00:10:07;;;;;;;11.48;7.03;;;14.00;99.90;;;;;;4589299;19;20037;-28
2023/03/14 00:11:40;;;;;;;10.87;7.20;;;14.00;99.90;;;;;;4588320;19;20350;-29
2023/03/14 00:13:12;;;;;;;10.00;7.00;;;13.90;99.90;;;;;;4589068;19;20017;-31
2023/03/14 00:14:43;;;;;;;;;;;13.90;99.90;;;;;;4589687;19;20345;-28
2023/03/14 00:16:15;;;;;;;11.53;6.30;;;13.90;99.90;;;;;;4589300;19;20328;-29
2023/03/14 00:17:49;;;;;;;12.87;7.70;;;13.90;99.90;;;;;;4588966;19;20417;-29
2023/03/14 00:19:24;;;;;;;10.77;7.07;;;13.90;99.90;;;;;;4589164;19;20449;-30
2023/03/14 00:21:10;;;;;;;9.47;6.33;;;13.80;99.90;;;;;;4589009;19;20054;-29
2023/03/14 00:22:43;;;;;;;9.80;6.13;;;13.80;99.90;;;;;;4588769;19;20445;-28
2023/03/14 00:24:15;;;;;;;11.10;6.78;;;13.80;99.90;;;;;;4588699;19;20452;-27
2023/03/14 00:25:47;;;;;;;11.87;7.03;;;13.80;99.90;;;;;;4587739;19;20353;-30
2023/03/14 00:27:18;;;;;;;10.23;6.90;;;13.80;99.90;;;;;;4588680;19;20018;-31
2023/03/14 00:28:53;;;;;;;10.77;7.03;;;13.80;99.90;;;;;;4588892;19;20533;-29
2023/03/14 00:30:25;;;;;;;13.50;8.10;;;13.70;99.90;;;;;;4589008;19;20022;-28
2023/03/14 00:31:57;;;;;;;13.25;7.95;;;13.70;99.90;;;;;;4588890;19;21066;-30
2023/03/14 00:33:28;;;;;;;14.48;7.50;;;13.70;99.90;;;;;;4588118;19;20035;-30
2023/03/14 00:35:00;;;;;;;14.27;7.55;;;13.80;99.90;;;;;;4588552;19;20006;-27
2023/03/14 00:36:33;;;;;;;13.80;7.00;;;13.80;99.90;;;;;;4588673;19;20018;-28
2023/03/14 00:38:04;;;;;;;13.63;6.78;;;13.80;99.90;;;;;;4588215;19;20370;-29
2023/03/14 00:39:36;;;;;;;11.17;7.43;;;13.80;99.90;;;;;;4588593;19;20049;-29
2023/03/14 00:41:14;;;;;;;13.73;7.63;;;13.70;99.90;;;;;;4588848;19;20578;-30
2023/03/14 00:42:45;;;;;;;11.27;6.73;;;13.70;99.90;;;;;;4588314;19;20871;-29
2023/03/14 00:44:17;;;;;;;;;;;13.70;99.90;;;;;;4589104;19;21040;-29
2023/03/14 00:45:50;;;;;;;11.47;6.87;;;13.60;99.90;;;;;;4588080;19;19942;-29
2023/03/14 00:47:23;;;;;;;9.80;6.33;;;13.60;99.90;;;;;;4590335;19;20497;-28
2023/03/14 00:48:54;;;;;;;9.23;6.18;;;13.70;99.90;;;;;;4590889;19;20018;-28
2023/03/14 00:50:25;;;;;;;11.80;7.10;;;13.70;99.90;;;;;;4591413;19;20031;-31
2023/03/14 00:51:57;;;;;;;10.43;6.90;;;13.70;99.90;;;;;;4590558;19;20037;-30
2023/03/14 00:53:28;;;;;;;9.68;6.75;;;13.70;99.90;;;;;;4592643;19;20030;-31
2023/03/14 00:55:00;;;;;;;11.40;6.80;;;13.70;99.90;;;;;;4594880;19;20011;-30
2023/03/14 00:56:31;;;;;;;;;;;13.70;99.90;;;;;;4593986;19;20029;-33
2023/03/14 00:58:03;;;;;;;9.80;6.93;;;13.70;99.90;;;;;;4592971;19;20328;-32
2023/03/14 00:59:34;;;;;;;11.13;6.20;;;13.70;99.90;;;;;;4593125;19;20503;-30
2023/03/14 01:01:10;;;;;;;11.70;6.43;;;13.70;99.90;;;;;;4593006;19;20018;-30
2023/03/14 01:02:43;;;;;;;9.37;6.40;;;13.80;99.90;;;;;;4591385;19;20015;-29
2023/03/14 01:04:15;;;;;;;10.85;6.80;;;13.80;99.90;;;;;;4592864;19;20015;-30
2023/03/14 01:05:47;;;;;;;11.67;6.97;;;13.80;99.90;;;;;;4592805;19;20417;-32
2023/03/14 01:07:20;;;;;;;10.37;6.90;;;13.80;99.90;;;;;;4591754;19;20018;-28
2023/03/14 01:08:52;;;;;;;8.93;6.73;;;13.70;99.90;;;;;;4592426;19;20018;-34
2023/03/14 01:10:24;;;;;;;10.07;6.80;;;13.70;99.90;;;;;;4592699;19;20019;-33
2023/03/14 01:11:55;;;;;;;12.73;7.78;;;13.70;99.90;;;;;;4592849;19;20450;-31
2023/03/14 01:13:27;;;;;;;11.97;6.83;;;13.70;99.90;;;;;;4592767;19;20015;-33
2023/03/14 01:14:59;;;;;;;10.30;7.33;;;13.70;99.90;;;;;;4592209;19;20044;-29
2023/03/14 01:16:32;;;;;;;9.68;6.60;;;13.60;99.90;;;;;;4592736;19;20014;-28
2023/03/14 01:18:05;;;;;;;11.13;7.10;;;13.60;99.90;;;;;;4592870;19;20017;-32
2023/03/14 01:19:37;;;;;;;10.83;6.17;;;13.50;99.90;;;;;;4592428;19;20789;-30
2023/03/14 01:21:16;;;;;;;9.27;6.80;;;13.60;99.90;;;;;;4592508;19;20489;-29
2023/03/14 01:22:48;;;;;;;11.83;6.33;;;13.50;99.90;;;;;;4592683;19;20456;-29
2023/03/14 01:24:20;;;;;;;11.50;6.90;;;13.50;99.90;;;;;;4592436;19;20594;-32
2023/03/14 01:25:51;;;;;;;9.70;6.57;;;13.50;99.90;;;;;;4591164;19;20471;-31
2023/03/14 01:27:25;;;;;;;9.47;6.50;;;13.50;99.90;;;;;;4591296;19;20468;-31
2023/03/14 01:28:56;;;;;;;11.45;6.72;;;13.50;99.90;;;;;;4590227;19;20428;-29
2023/03/14 01:30:28;;;;;;;10.53;6.33;;;13.50;99.90;;;;;;4590832;19;20025;-28
2023/03/14 01:32:00;;;;;;;11.40;6.43;;;13.50;99.90;;;;;;4592177;19;20437;-29
2023/03/14 01:33:32;;;;;;;9.85;5.85;;;13.50;99.90;;;;;;4592386;19;20433;-32
2023/03/14 01:35:04;;;;;;;9.30;6.50;;;13.50;99.90;;;;;;4591694;19;20011;-30
2023/03/14 01:36:35;;;;;;;8.80;5.93;;;13.50;99.90;;;;;;4592234;19;20780;-28
2023/03/14 01:38:07;;;;;;;9.63;5.97;;;13.50;99.90;;;;;;4592346;19;20015;-30
2023/03/14 01:39:38;;;;;;;9.15;6.25;;;13.50;99.90;;;;;;4592278;19;20377;-29
2023/03/14 01:41:15;;;;;;;10.20;5.65;;;13.50;99.90;;;;;;4592226;19;20007;-29
2023/03/14 01:42:55;;;;;;;10.93;7.13;;;13.50;99.90;;;;;;4591140;19;20010;-29
2023/03/14 01:44:26;;;;;;;9.80;6.23;;;13.50;99.90;;;;;;4591286;19;20447;-30
2023/03/14 01:46:05;;;;;;;8.73;5.70;;;13.50;99.90;;;;;;4592064;19;20041;-29
2023/03/14 01:47:37;;;;;;;11.37;6.13;;;13.50;99.90;;;;;;4592194;19;20485;-31
2023/03/14 01:49:18;;;;;;;8.70;5.97;;;13.50;99.90;;;;;;4591936;19;19999;-27
2023/03/14 01:50:49;;;;;;;8.83;6.40;;;13.60;99.90;;;;;;4592017;19;20792;-28
2023/03/14 01:52:31;;;;;;;10.70;7.00;;;13.50;99.90;;;;;;4591772;19;20019;-29
2023/03/14 01:54:36;;;;;;;10.33;5.90;;;13.50;99.90;;;;;;4589517;19;20413;-29
2023/03/14 01:56:09;;;;;;;7.77;5.40;;;13.50;99.90;;;;;;4590483;19;20487;-30
2023/03/14 01:57:46;;;;;;;10.63;7.03;;;13.50;99.90;;;;;;4591010;19;20452;-33
2023/03/14 01:59:18;;;;;;;8.67;5.47;;;13.40;99.90;;;;;;4590690;19;20437;-28
2023/03/14 02:00:49;;;;;;;8.68;5.85;;;13.50;99.90;;;;;;4590764;19;20425;-30
2023/03/14 02:02:20;;;;;;;11.55;6.00;;;13.50;99.90;;;;;;4590616;19;20017;-29
2023/03/14 02:03:56;;;;;;;9.52;6.10;;;13.50;99.90;;;;;;4589525;19;20019;-29
2023/03/14 02:05:36;;;;;;;9.83;6.50;;;13.50;99.90;;;;;;4590976;19;20081;-29
2023/03/14 02:07:44;;;;;;;10.37;5.90;;;13.40;99.90;;;;;;4590406;19;20467;-28
2023/03/14 02:09:16;;;;;;;8.90;5.70;;;13.40;99.90;;;;;;4589275;19;20432;-29
2023/03/14 02:10:49;;;;;;;12.53;6.87;;;13.50;99.90;;;;;;4589451;19;20444;-29
2023/03/14 02:12:21;;;;;;;7.73;5.50;;;13.50;99.90;;;;;;4589284;19;20433;-29
2023/03/14 02:13:54;;;;;;;8.90;6.10;;;13.40;99.90;;;;;;4589489;19;20456;-29
2023/03/14 02:15:26;;;;;;;8.17;5.67;;;13.40;99.90;;;;;;4588676;19;20018;-29
2023/03/14 02:17:00;;;;;;;9.93;6.00;;;13.40;99.90;;;;;;4589335;19;20035;-28
2023/03/14 02:18:31;;;;;;;8.33;5.33;;;13.40;99.90;;;;;;4589553;19;20579;-31
2023/03/14 02:20:10;;;;;;;8.43;5.53;;;13.40;99.90;;;;;;4588994;19;20484;-31
2023/03/14 02:21:51;;;;;;;7.47;5.33;;;13.40;99.90;;;;;;4589205;19;20455;-30
2023/03/14 02:23:41;;;;;;;11.87;5.87;;;13.40;99.90;;;;;;4589253;19;20981;-28
2023/03/14 02:25:35;;;;;;;9.93;5.97;;;13.40;99.90;;;;;;4589241;19;20449;-28
2023/03/14 02:27:16;;;;;;;10.13;6.70;;;13.40;99.90;;;;;;4588920;19;20441;-33
2023/03/14 02:28:50;;;;;;;10.40;7.40;;;13.40;99.90;;;;;;4589283;19;20435;-28
2023/03/14 02:30:22;;;;;;;10.03;6.20;;;13.30;99.90;;;;;;4589009;19;20386;-30
2023/03/14 02:31:56;;;;;;;7.47;5.37;;;13.30;99.90;;;;;;4588794;19;20425;-28
2023/03/14 02:33:29;;;;;;;11.13;7.27;;;13.30;99.90;;;;;;4588728;19;20529;-30
2023/03/14 02:35:05;;;;;;;8.48;5.68;;;13.30;99.90;;;;;;4588436;19;20812;-30
2023/03/14 02:36:37;;;;;;;11.57;6.70;;;13.30;99.90;;;;;;4589340;19;20034;-28
2023/03/14 02:38:11;;;;;;;7.95;5.22;;;13.30;99.90;;;;;;4588893;19;20372;-30
2023/03/14 02:39:45;;;;;;;8.10;5.63;;;13.30;99.90;;;;;;4589022;19;20006;-29
2023/03/14 02:41:17;;;;;;;8.57;5.37;;;13.30;99.90;;;;;;4588926;19;20437;-31
2023/03/14 02:42:49;;;;;;;9.48;6.03;;;13.30;99.90;;;;;;4589110;19;20484;-28
2023/03/14 02:44:20;;;;;;;;;;;13.30;99.90;;;;;;4589728;19;20006;-28
2023/03/14 02:45:52;;;;;;;9.15;6.25;;;13.30;99.90;;;;;;4588995;19;19943;-31
2023/03/14 02:47:29;;;;;;;12.10;6.03;;;13.20;99.90;;;;;;4589846;19;20015;-29
2023/03/14 02:49:03;;;;;;;12.20;5.57;;;13.30;99.90;;;;;;4590948;19;20466;-28
2023/03/14 02:50:34;;;;;;;8.57;5.77;;;13.30;99.90;;;;;;4590702;19;20433;-30
2023/03/14 02:52:06;;;;;;;9.27;5.90;;;13.30;99.90;;;;;;4589701;19;20429;-28
2023/03/14 02:53:38;;;;;;;9.50;5.38;;;13.30;99.90;;;;;;4589829;19;20555;-33
2023/03/14 02:55:11;;;;;;;8.87;5.70;;;13.30;99.90;;;;;;4590529;19;20027;-30
2023/03/14 02:56:42;;;;;;;8.02;5.35;;;13.20;99.90;;;;;;4590388;19;20433;-28
2023/03/14 02:58:14;;;;;;;8.30;5.90;;;13.20;99.90;;;;;;4591045;19;20011;-33
2023/03/14 02:59:46;;;;;;;13.47;5.83;;;13.20;99.90;;;;;;4589487;19;20143;-29
2023/03/14 03:01:18;;;;;;;9.25;5.65;;;13.20;99.90;;;;;;4590155;19;20479;-29
2023/03/14 03:02:49;;;;;;;;;;;13.20;99.90;;;;;;4590252;19;20010;-30
2023/03/14 03:04:20;;;;;;;9.70;5.57;;;13.20;99.90;;;;;;4590183;19;19926;-29
2023/03/14 03:05:53;;;;;;;8.75;5.57;;;13.20;99.90;;;;;;4590553;19;20480;-29
2023/03/14 03:07:25;;;;;;;11.87;6.33;;;13.30;99.90;;;;;;4590477;19;20348;-29
2023/03/14 03:08:58;;;;;;;9.57;5.80;;;13.30;99.90;;;;;;4589214;19;20015;-30
2023/03/14 03:10:29;;;;;;;9.52;5.35;;;13.30;99.90;;;;;;4590254;19;20468;-29
2023/03/14 03:12:00;;;;;;;10.07;7.05;;;13.30;99.90;;;;;;4590500;19;20044;-28
2023/03/14 03:13:35;;;;;;;10.53;6.00;;;13.20;99.90;;;;;;4590471;19;20014;-35
2023/03/14 03:15:07;;;;;;;10.30;6.38;;;13.20;99.90;;;;;;4587467;19;20014;-28
2023/03/14 03:16:39;;;;;;;13.13;6.33;;;13.10;99.90;;;;;;4587325;19;20018;-29
2023/03/14 03:18:11;;;;;;;8.43;5.83;;;13.10;99.90;;;;;;4587962;19;20433;-30
2023/03/14 03:19:43;;;;;;;10.52;6.53;;;13.10;99.90;;;;;;4587929;19;20485;-34
2023/03/14 03:21:15;;;;;;;;;;;13.10;99.90;;;;;;4588718;19;20504;-29
2023/03/14 03:22:46;;;;;;;9.30;6.07;;;13.10;99.90;;;;;;4588001;19;20239;-31
2023/03/14 03:24:18;;;;;;;9.77;6.57;;;13.20;99.90;;;;;;4587834;19;20006;-31
2023/03/14 03:25:50;;;;;;;11.00;5.95;;;13.20;99.90;;;;;;4588152;19;20081;-29
2023/03/14 03:27:22;;;;;;;9.60;5.97;;;13.20;99.90;;;;;;4587892;19;20479;-29
2023/03/14 03:28:54;;;;;;;8.30;6.15;;;13.20;99.90;;;;;;4588111;19;20536;-32
2023/03/14 03:30:25;;;;;;;8.52;5.65;;;13.20;99.90;;;;;;4587761;19;20022;-28
2023/03/14 03:31:56;;;;;;;8.55;5.38;;;13.20;99.90;;;;;;4587667;19;20041;-28
2023/03/14 03:33:28;;;;;;;8.45;5.03;;;13.20;99.90;;;;;;4587971;19;20031;-31
2023/03/14 03:34:59;;;;;;;9.30;5.65;;;13.20;99.90;;;;;;4587515;19;20357;-30
2023/03/14 03:36:33;;;;;;;13.63;5.70;;;13.20;99.90;;;;;;4587875;19;20011;-29
2023/03/14 03:38:06;;;;;;;10.30;5.70;;;13.20;99.90;;;;;;4587449;19;20956;-30
2023/03/14 03:39:38;;;;;;;6.97;5.20;;;13.20;99.90;;;;;;4587472;19;20558;-29
2023/03/14 03:41:10;;;;;;;12.18;5.78;;;13.20;99.90;;;;;;4587613;19;20441;-30
2023/03/14 03:42:43;;;;;;;8.63;5.83;;;13.20;99.90;;;;;;4587499;19;20038;-32
2023/03/14 03:44:16;;;;;;;8.53;5.37;;;13.20;99.90;;;;;;4585184;19;21096;-29
2023/03/14 03:45:48;;;;;;;12.83;6.23;;;13.20;99.90;;;;;;4587371;19;20528;-28
2023/03/14 03:47:19;;;;;;;8.45;5.07;;;13.20;99.90;;;;;;4587538;19;20467;-30
2023/03/14 03:48:58;;;;;;;7.73;4.40;;;13.20;99.90;;;;;;4589668;19;20014;-30
2023/03/14 03:50:29;;;;;;;8.23;4.80;;;13.20;99.90;;;;;;4589596;19;20452;-29
2023/03/14 03:52:01;;;;;;;6.97;4.70;;;13.20;99.90;;;;;;4588413;19;20528;-30
2023/03/14 03:53:32;;;;;;;9.98;5.32;;;13.20;99.90;;;;;;4588414;19;20126;-29
2023/03/14 03:55:04;;;;;;;8.23;5.30;;;13.20;99.90;;;;;;4588260;19;20090;-32
2023/03/14 03:56:37;;;;;;;7.33;4.97;;;13.20;99.90;;;;;;4588272;19;20342;-30
2023/03/14 03:58:08;;;;;;;8.38;5.32;;;13.20;99.90;;;;;;4589155;19;20460;-33
2023/03/14 03:59:40;;;;;;;8.40;4.93;;;13.20;99.90;;;;;;4588293;19;20077;-30
2023/03/14 04:01:13;;;;;;;7.10;4.90;;;13.20;99.90;;;;;;4589010;19;20011;-28
2023/03/14 04:02:44;;;;;;;6.47;4.75;;;13.20;99.90;;;;;;4588645;19;20532;-29
2023/03/14 04:04:16;;;;;;;7.72;4.70;;;13.20;99.90;;;;;;4589776;19;20007;-31
2023/03/14 04:05:57;;;;;;;7.35;5.03;;;13.20;99.90;;;;;;4589270;19;20048;-32
2023/03/14 04:07:32;;;;;;;8.67;5.20;;;13.20;99.90;;;;;;4588202;19;20026;-33
2023/03/14 04:09:04;;;;;;;7.53;4.77;;;13.20;99.90;;;;;;4589111;19;20456;-28
2023/03/14 04:10:35;;;;;;;9.23;5.32;;;13.20;99.90;;;;;;4590825;19;20507;-30
2023/03/14 04:12:08;;;;;;;6.97;4.47;;;13.20;99.90;;;;;;4588055;19;20022;-35
2023/03/14 04:13:44;;;;;;;7.60;4.67;;;13.20;99.90;;;;;;4590595;19;20018;-32
2023/03/14 04:15:15;;;;;;;7.65;4.93;;;13.20;99.90;;;;;;4588920;19;20010;-27
2023/03/14 04:16:47;;;;;;;6.55;4.60;;;13.20;99.90;;;;;;4589129;19;20035;-29
2023/03/14 04:18:19;;;;;;;6.93;4.60;;;13.20;99.90;;;;;;4589074;19;20087;-28
2023/03/14 04:19:53;;;;;;;8.00;4.87;;;13.30;99.90;;;;;;4588986;19;20018;-32
2023/03/14 04:21:26;;;;;;;8.40;4.73;;;13.30;99.90;;;;;;4589236;19;20010;-32
2023/03/14 04:22:58;;;;;;;8.50;5.10;;;13.30;99.90;;;;;;4587522;19;20458;-32
2023/03/14 04:24:30;;;;;;;8.95;5.05;;;13.20;99.90;;;;;;4588650;19;20058;-28
2023/03/14 04:26:02;;;;;;;7.55;4.85;;;13.20;99.90;;;;;;4589232;19;20495;-30
2023/03/14 04:27:34;;;;;;;8.87;5.53;;;13.20;99.90;;;;;;4592679;19;20022;-29
2023/03/14 04:29:06;;;;;;;7.93;4.75;;;13.20;99.90;;;;;;4592647;19;20532;-33
2023/03/14 04:30:38;;;;;;;7.67;5.00;;;13.20;99.90;;;;;;4593514;19;20014;-30
2023/03/14 04:32:09;;;;;;;9.32;5.40;;;13.20;99.90;;;;;;4593556;19;20441;-29
2023/03/14 04:33:40;;;;;;;7.72;5.60;;;13.20;99.90;;;;;;4596003;19;20460;-28
2023/03/14 04:35:11;;;;;;;7.95;5.00;;;13.20;99.90;;;;;;4595314;19;20027;-30
2023/03/14 04:36:43;;;;;;;10.88;5.80;;;13.20;99.90;;;;;;4594535;19;20086;-29
2023/03/14 04:38:15;;;;;;;;;;;13.20;99.90;;;;;;4595613;19;20035;-29
2023/03/14 04:39:47;;;;;;;10.07;5.28;;;13.20;99.90;;;;;;4593442;19;19922;-28
2023/03/14 04:41:21;;;;;;;11.57;5.07;;;13.20;99.90;;;;;;4595438;19;20011;-29
2023/03/14 04:42:53;;;;;;;8.73;5.40;;;13.20;99.90;;;;;;4593798;19;20504;-30
2023/03/14 04:44:25;;;;;;;9.83;5.93;;;13.20;99.90;;;;;;4595775;19;20500;-29
2023/03/14 04:45:59;;;;;;;6.80;4.73;;;13.10;99.90;;;;;;4593469;19;20482;-32
2023/03/14 04:47:30;;;;;;;7.60;5.30;;;13.10;99.90;;;;;;4593368;19;20433;-27
2023/03/14 04:49:01;;;;;;;7.72;5.53;;;13.10;99.90;;;;;;4593133;19;20364;-29
2023/03/14 04:50:34;;;;;;;9.27;5.93;;;13.10;99.90;;;;;;4593142;19;20011;-27
2023/03/14 04:52:05;;;;;;;15.95;10.23;;;13.10;99.90;;;;;;4593175;19;20433;-26
2023/03/14 04:53:37;;;;;;;15.17;9.83;;;13.20;99.90;;;;;;4591622;19;20480;-29
2023/03/14 04:55:09;;;;;;;;;;;13.20;99.90;;;;;;4594035;19;20842;-29
2023/03/14 04:56:41;;;;;;;32.25;28.92;;;13.30;99.90;;;;;;4594838;19;19911;-30
2023/03/14 04:58:13;;;;;;;33.13;29.53;;;13.30;99.90;;;;;;4595408;19;20015;-34
2023/03/14 04:59:44;;;;;;;63.83;56.90;;;13.30;99.90;;;;;;4595418;19;20015;-30
2023/03/14 05:01:16;;;;;;;41.53;36.95;;;13.40;99.90;;;;;;4594946;19;20025;-28
2023/03/14 05:02:47;;;;;;;;;;;13.40;99.90;;;;;;4594866;19;20085;-30
2023/03/14 05:04:19;;;;;;;72.27;64.67;;;13.40;99.90;;;;;;4595053;19;19918;-29
2023/03/14 05:05:50;;;;;;;99.45;89.78;;;13.50;99.90;;;;;;4594910;19;21143;-28
2023/03/14 05:07:21;;;;;;;81.00;73.07;;;13.50;99.90;;;;;;4594978;19;20479;-29
2023/03/14 05:08:53;;;;;;;42.35;36.83;;;13.50;99.90;;;;;;4595162;19;20034;-29
2023/03/14 05:10:25;;;;;;;18.85;11.27;;;13.70;99.90;;;;;;4595125;19;20107;-30
2023/03/14 05:11:57;;;;;;;9.97;6.77;;;13.60;99.90;;;;;;4594873;19;20116;-30
2023/03/14 05:13:29;;;;;;;13.47;7.20;;;13.70;99.90;;;;;;4595330;19;20014;-32
2023/03/14 05:15:04;;;;;;;19.73;10.60;;;13.60;99.90;;;;;;4594772;19;20389;-30
2023/03/14 05:16:36;;;;;;;18.80;12.83;;;13.60;99.90;;;;;;4594891;19;20052;-29
2023/03/14 05:18:09;;;;;;;11.83;8.63;;;13.60;99.90;;;;;;4593055;19;20421;-30
2023/03/14 05:19:41;;;;;;;13.30;9.15;;;13.60;99.90;;;;;;4592738;19;20066;-30
2023/03/14 05:21:12;;;;;;;11.17;9.50;;;13.70;99.90;;;;;;4592973;19;20011;-29
2023/03/14 05:22:44;;;;;;;9.30;7.20;;;13.70;99.90;;;;;;4592293;19;20015;-32
2023/03/14 05:24:15;;;;;;;12.52;6.85;;;13.70;99.90;;;;;;4592513;19;20010;-29
2023/03/14 05:25:47;;;;;;;11.00;7.18;;;13.70;99.90;;;;;;4592466;19;20010;-29
2023/03/14 05:27:18;;;;;;;7.88;5.57;;;13.60;99.90;;;;;;4591489;19;20032;-29
2023/03/14 05:28:49;;;;;;;11.65;6.40;;;13.50;99.90;;;;;;4593135;19;20018;-29
2023/03/14 05:30:21;;;;;;;;;;;13.50;99.90;;;;;;4594286;19;20018;-28
2023/03/14 05:31:52;;;;;;;11.68;6.00;;;13.40;99.90;;;;;;4590037;19;19927;-30
2023/03/14 05:33:25;;;;;;;9.33;6.27;;;13.40;99.90;;;;;;4591467;19;20368;-32
2023/03/14 05:34:58;;;;;;;9.40;5.57;;;13.40;99.90;;;;;;4591539;19;20085;-28
2023/03/14 05:36:31;;;;;;;11.30;6.23;;;13.30;99.90;;;;;;4590969;19;20021;-26
2023/03/14 05:38:02;;;;;;;9.68;5.53;;;13.30;99.90;;;;;;4590518;19;20346;-30
2023/03/14 05:39:34;;;;;;;9.82;7.05;;;13.30;99.90;;;;;;4589771;19;20018;-33
2023/03/14 05:41:05;;;;;;;8.15;6.82;;;13.30;99.90;;;;;;4593232;19;20365;-30
2023/03/14 05:42:36;;;;;;;14.85;13.25;;;13.40;99.90;;;;;;4591516;19;20035;-31
2023/03/14 05:44:08;;;;;;;15.00;10.13;;;13.40;99.90;;;;;;4592156;19;20018;-27
2023/03/14 05:45:40;;;;;;;14.60;6.93;;;13.40;99.90;;;;;;4592170;19;20019;-27
2023/03/14 05:47:12;;;;;;;11.97;7.07;;;13.50;99.90;;;;;;4590432;19;20024;-27
2023/03/14 05:48:44;;;;;;;11.13;6.07;;;13.50;99.90;;;;;;4591093;19;20939;-32
2023/03/14 05:50:16;;;;;;;16.13;7.65;;;13.50;99.90;;;;;;4591056;19;20021;-26
2023/03/14 05:51:47;;;;;;;;;;;13.50;99.90;;;;;;4591832;19;20011;-29
2023/03/14 05:53:20;;;;;;;14.27;7.10;;;13.50;99.90;;;;;;4589601;19;19927;-29
2023/03/14 05:54:51;;;;;;;12.87;7.97;;;13.60;99.90;;;;;;4590290;19;20405;-33
2023/03/14 05:56:22;;;;;;;13.30;7.88;;;13.60;99.90;;;;;;4591401;19;20290;-28
2023/03/14 05:57:54;;;;;;;12.35;8.00;;;13.60;99.90;;;;;;4591404;19;20022;-33
2023/03/14 05:59:25;;;;;;;;;;;13.60;99.90;;;;;;4592822;19;20049;-28
2023/03/14 06:00:57;;;;;;;13.27;9.00;;;13.60;99.90;;;;;;4591911;19;19943;-28
2023/03/14 06:02:28;;;;;;;13.55;9.40;;;13.60;99.90;;;;;;4588927;19;20014;-29
2023/03/14 06:03:59;;;;;;;11.63;9.43;;;13.60;99.90;;;;;;4591590;19;20036;-28
2023/03/14 06:05:31;;;;;;;14.07;9.23;;;13.70;99.90;;;;;;4592671;19;20046;-29
2023/03/14 06:07:04;;;;;;;13.70;8.87;;;13.70;99.90;;;;;;4590502;19;20011;-29
2023/03/14 06:08:36;;;;;;;14.63;8.67;;;13.70;99.90;;;;;;4589756;19;20010;-29
2023/03/14 06:10:08;;;;;;;15.25;8.85;;;13.70;99.90;;;;;;4589609;19;20014;-29
2023/03/14 06:11:40;;;;;;;13.73;9.00;;;13.70;99.90;;;;;;4591644;19;20126;-30
2023/03/14 06:13:13;;;;;;;12.27;8.33;;;13.70;99.90;;;;;;4592048;19;20437;-32
2023/03/14 06:14:44;;;;;;;16.92;8.95;;;13.70;99.90;;;;;;4591772;19;20330;-30
2023/03/14 06:16:16;;;;;;;12.57;8.60;;;13.70;99.90;;;;;;4589929;19;20022;-33
2023/03/14 06:17:49;;;;;;;13.13;8.77;;;13.70;99.90;;;;;;4591024;19;20040;-30
2023/03/14 06:19:20;;;;;;;13.50;9.02;;;13.70;99.90;;;;;;4590556;19;20022;-30
2023/03/14 06:20:55;;;;;;;13.20;8.55;;;13.60;99.90;;;;;;4588847;19;20098;-29
2023/03/14 06:22:27;;;;;;;11.77;8.10;;;13.60;99.90;;;;;;4589530;19;20019;-28
2023/03/14 06:23:59;;;;;;;16.65;9.15;;;13.60;99.90;;;;;;4592759;19;20030;-31
2023/03/14 06:25:31;;;;;;;15.23;8.70;;;13.60;99.90;;;;;;4591954;19;20010;-29
2023/03/14 06:27:03;;;;;;;13.47;8.73;;;13.60;99.90;;;;;;4591279;19;20021;-28
2023/03/14 06:28:36;;;;;;;13.23;7.97;;;13.60;99.90;;;;;;4591130;19;20829;-29
2023/03/14 06:30:08;;;;;;;12.55;7.43;;;13.50;99.90;;;;;;4590835;19;20409;-29
2023/03/14 06:31:39;;;;;;;13.23;7.83;;;13.60;99.90;;;;;;4590351;19;20006;-29
2023/03/14 06:33:11;;;;;;;12.20;6.90;;;13.60;99.90;;;;;;4590263;19;20022;-30
2023/03/14 06:34:43;;;;;;;12.70;7.17;;;13.70;99.90;;;;;;4589901;19;20481;-31
2023/03/14 06:36:15;;;;;;;13.07;7.43;;;13.80;99.90;;;;;;4588660;19;20007;-30
2023/03/14 06:37:46;;;;;;;13.80;6.88;;;14.00;99.90;;;;;;4588626;19;20110;-31
2023/03/14 06:39:18;;;;;;;11.57;7.20;;;14.00;99.90;;;;;;4591620;19;20018;-29
2023/03/14 06:40:49;;;;;;;12.80;7.82;;;13.90;99.90;;;;;;4591659;19;20034;-29
2023/03/14 06:42:21;;;;;;;13.30;8.32;;;13.90;99.90;;;;;;4591742;19;20014;-29
2023/03/14 06:43:52;;;;;;;14.37;8.50;;;13.80;99.90;;;;;;4590817;19;20025;-29
2023/03/14 06:45:24;;;;;;;15.70;9.27;;;13.70;99.90;;;;;;4590670;19;20006;-29
2023/03/14 06:46:55;;;;;;;11.73;8.00;;;13.70;99.90;;;;;;4590559;19;20018;-28
2023/03/14 06:48:26;;;;;;;;;;;13.60;99.90;;;;;;4590664;19;20030;-29
2023/03/14 06:49:58;;;;;;;12.90;8.10;;;13.60;99.90;;;;;;4589186;19;19929;-30
2023/03/14 06:51:29;;;;;;;13.85;8.40;;;13.60;99.90;;;;;;4589155;19;20018;-29
2023/03/14 06:53:00;;;;;;;13.73;8.10;;;13.50;99.90;;;;;;4588940;19;20018;-29
2023/03/14 06:54:32;;;;;;;12.30;8.00;;;13.50;99.90;;;;;;4591533;19;20030;-30
2023/03/14 06:56:03;;;;;;;11.80;7.57;;;13.50;99.90;;;;;;4590274;19;20022;-30
2023/03/14 06:57:36;;;;;;;11.97;7.90;;;13.40;99.90;;;;;;4591028;19;20329;-28
2023/03/14 06:59:09;;;;;;;12.63;8.63;;;13.40;99.90;;;;;;4590833;19;20453;-28
2023/03/14 07:00:41;;;;;;;12.03;7.43;;;13.40;99.90;;;;;;4590382;19;20006;-34
2023/03/14 07:02:13;;;;;;;12.27;7.90;;;13.40;99.90;;;;;;4589525;19;20492;-30
2023/03/14 07:03:46;;;;;;;11.67;8.63;;;13.40;99.90;;;;;;4589394;19;20018;-28
2023/03/14 07:05:17;;;;;;;12.00;8.95;;;13.40;99.90;;;;;;4589557;19;20424;-31
2023/03/14 07:06:48;;;;;;;16.52;14.93;;;13.40;99.90;;;;;;4589017;19;20014;-30
2023/03/14 07:08:19;;;;;;;21.63;17.85;;;13.40;99.90;;;;;;4589111;19;20007;-30
2023/03/14 07:09:51;;;;;;;17.08;14.40;;;13.40;99.90;;;;;;4591469;19;20013;-29
2023/03/14 07:11:23;;;;;;;13.37;10.13;;;13.40;99.90;;;;;;4590945;19;20851;-30
2023/03/14 07:12:55;;;;;;;11.93;7.90;;;13.40;99.90;;;;;;4590628;19;20010;-28
2023/03/14 07:14:26;;;;;;;13.68;8.25;;;13.50;99.90;;;;;;4589997;19;20037;-30
2023/03/14 07:15:58;;;;;;;10.50;6.85;;;13.70;99.90;;;;;;4588824;19;20021;-32
2023/03/14 07:17:29;;;;;;;8.77;6.13;;;13.90;99.90;;;;;;4589231;19;20495;-29
2023/03/14 07:19:01;;;;;;;10.43;6.57;;;14.10;99.90;;;;;;4589045;19;20472;-29
2023/03/14 07:20:32;;;;;;;;;;;14.30;99.90;;;;;;4590994;19;20098;-29
2023/03/14 07:22:06;;;;;;;10.80;7.27;;;14.40;99.90;;;;;;4590492;19;19922;-31
2023/03/14 07:23:38;;;;;;;15.53;8.60;;;14.50;99.90;;;;;;4590525;19;20017;-29
2023/03/14 07:25:11;;;;;;;16.90;10.23;;;14.50;99.90;;;;;;4590062;19;20084;-32
2023/03/14 07:26:44;;;;;;;16.60;9.53;;;14.60;99.90;;;;;;4588980;19;20014;-34
2023/03/14 07:28:15;;;;;;;11.27;8.98;;;14.60;99.90;;;;;;4589354;19;20014;-31
2023/03/14 07:29:46;;;;;;;12.15;7.35;;;14.60;99.90;;;;;;4587832;19;20010;-29
2023/03/14 07:31:17;;;;;;;12.18;7.47;;;14.60;99.90;;;;;;4588338;19;20077;-28
2023/03/14 07:32:49;;;;;;;12.50;7.95;;;14.60;99.90;;;;;;4588407;19;20014;-32
2023/03/14 07:34:20;;;;;;;12.45;7.40;;;14.40;99.90;;;;;;4588052;19;20129;-29
2023/03/14 07:35:51;;;;;;;11.73;7.63;;;14.20;99.90;;;;;;4589130;19;20022;-28
2023/03/14 07:37:23;;;;;;;11.07;7.13;;;14.10;99.90;;;;;;4588893;19;20034;-32
2023/03/14 07:38:56;;;;;;;12.18;7.45;;;13.90;99.90;;;;;;4589458;19;20388;-29
2023/03/14 07:40:28;;;;;;;8.50;6.40;;;13.80;99.90;;;;;;4589758;19;20357;-30
2023/03/14 07:41:59;;;;;;;8.23;6.00;;;13.70;99.90;;;;;;4589912;19;20018;-30
2023/03/14 07:43:33;;;;;;;11.57;6.83;;;13.70;99.90;;;;;;4589662;19;20014;-29
2023/03/14 07:45:07;;;;;;;10.87;6.80;;;13.60;99.90;;;;;;4590038;19;20006;-29
2023/03/14 07:46:38;;;;;;;11.93;6.93;;;13.60;99.90;;;;;;4589609;19;20496;-28
2023/03/14 07:48:11;;;;;;;9.40;6.27;;;13.60;99.90;;;;;;4589689;19;20018;-28
2023/03/14 07:49:42;;;;;;;11.57;6.50;;;13.60;99.90;;;;;;4589797;19;20007;-28
2023/03/14 07:51:13;;;;;;;11.55;7.35;;;13.60;99.90;;;;;;4588640;19;20088;-28
2023/03/14 07:52:46;;;;;;;14.77;10.77;;;13.60;99.90;;;;;;4587925;19;20042;-34
2023/03/14 07:54:17;;;;;;;16.00;10.02;;;13.60;99.90;;;;;;4589255;19;20015;-32
2023/03/14 07:55:48;;;;;;;12.52;7.97;;;13.60;99.90;;;;;;4586307;19;20111;-30
2023/03/14 07:57:19;;;;;;;12.38;7.88;;;13.60;99.90;;;;;;4588577;19;20037;-33
2023/03/14 07:58:52;;;;;;;9.47;7.13;;;13.60;99.90;;;;;;4588954;19;20010;-30
2023/03/14 08:00:28;;;;;;;9.47;7.20;;;13.70;99.90;;;;;;4589647;19;20006;-29